sensor_id;sensor_type;location;lat;lon;timestamp;pressure;altitude;pressure_sealevel;temperature;humidity
6851;BME280;3464;42.728;23.296;2023-01-24T00:01:01;96219.69;;;10.70;66.80
6851;BME280;3464;42.728;23.296;2023-01-24T00:03:28;96227.73;;;10.56;67.01
6851;BME280;3464;42.728;23.296;2023-01-24T00:05:54;96221.45;;;10.74;66.93
6851;BME280;3464;42.728;23.296;2023-01-24T00:08:21;96213.39;;;10.70;66.46
6851;BME280;3464;42.728;23.296;2023-01-24T00:13:23;96224.78;;;10.55;66.91
6851;BME280;3464;42.728;23.296;2023-01-24T00:15:50;96216.87;;;10.93;65.92
6851;BME280;3464;42.728;23.296;2023-01-24T00:18:18;96225.69;;;10.58;66.98
6851;BME280;3464;42.728;23.296;2023-01-24T00:20:46;96217.30;;;10.95;66.04
6851;BME280;3464;42.728;23.296;2023-01-24T00:23:13;96225.97;;;10.52;66.77
6851;BME280;3464;42.728;23.296;2023-01-24T00:25:42;96229.58;;;10.62;66.20
6851;BME280;3464;42.728;23.296;2023-01-24T00:28:09;96245.51;;;10.62;65.81
6851;BME280;3464;42.728;23.296;2023-01-24T00:30:36;96246.38;;;10.62;66.25
6851;BME280;3464;42.728;23.296;2023-01-24T00:33:02;96235.40;;;10.60;66.65
6851;BME280;3464;42.728;23.296;2023-01-24T00:35:29;96238.48;;;10.48;66.83
6851;BME280;3464;42.728;23.296;2023-01-24T00:37:57;96244.40;;;10.68;66.82
6851;BME280;3464;42.728;23.296;2023-01-24T00:40:29;96245.04;;;10.60;66.66
6851;BME280;3464;42.728;23.296;2023-01-24T00:42:55;96235.89;;;10.46;67.05
6851;BME280;3464;42.728;23.296;2023-01-24T00:45:22;96245.66;;;10.67;66.59
6851;BME280;3464;42.728;23.296;2023-01-24T00:47:49;96240.95;;;10.82;66.12
6851;BME280;3464;42.728;23.296;2023-01-24T00:50:16;96254.60;;;10.55;66.27
6851;BME280;3464;42.728;23.296;2023-01-24T00:52:42;96238.83;;;10.80;65.90
6851;BME280;3464;42.728;23.296;2023-01-24T00:55:09;96242.49;;;10.41;66.90
6851;BME280;3464;42.728;23.296;2023-01-24T00:57:35;96251.19;;;10.20;67.80
6851;BME280;3464;42.728;23.296;2023-01-24T01:00:08;96244.78;;;10.32;67.80
6851;BME280;3464;42.728;23.296;2023-01-24T01:02:35;96248.87;;;10.45;67.81
6851;BME280;3464;42.728;23.296;2023-01-24T01:05:04;96243.27;;;10.56;67.08
6851;BME280;3464;42.728;23.296;2023-01-24T01:07:31;96236.73;;;10.99;66.45
6851;BME280;3464;42.728;23.296;2023-01-24T01:09:57;96234.95;;;11.33;65.43
6851;BME280;3464;42.728;23.296;2023-01-24T01:12:24;96245.80;;;10.74;67.27
6851;BME280;3464;42.728;23.296;2023-01-24T01:14:51;96233.73;;;11.14;66.69
6851;BME280;3464;42.728;23.296;2023-01-24T01:17:17;96249.00;;;10.68;66.92
6851;BME280;3464;42.728;23.296;2023-01-24T01:19:44;96249.44;;;10.68;68.16
6851;BME280;3464;42.728;23.296;2023-01-24T01:22:11;96247.59;;;9.97;69.43
6851;BME280;3464;42.728;23.296;2023-01-24T01:24:37;96246.39;;;10.46;68.18
6851;BME280;3464;42.728;23.296;2023-01-24T01:27:04;96250.83;;;10.07;69.33
6851;BME280;3464;42.728;23.296;2023-01-24T01:29:32;96255.36;;;10.37;69.02
6851;BME280;3464;42.728;23.296;2023-01-24T01:31:59;96250.67;;;10.02;69.11
6851;BME280;3464;42.728;23.296;2023-01-24T01:34:26;96254.95;;;10.53;69.17
6851;BME280;3464;42.728;23.296;2023-01-24T01:36:52;96248.75;;;10.75;68.01
6851;BME280;3464;42.728;23.296;2023-01-24T01:39:19;96244.94;;;10.38;68.72
6851;BME280;3464;42.728;23.296;2023-01-24T01:41:46;96247.53;;;10.25;69.56
6851;BME280;3464;42.728;23.296;2023-01-24T01:44:25;96244.94;;;10.39;68.63
6851;BME280;3464;42.728;23.296;2023-01-24T01:46:59;96245.25;;;10.03;69.63
6851;BME280;3464;42.728;23.296;2023-01-24T01:49:25;96243.10;;;10.66;68.60
6851;BME280;3464;42.728;23.296;2023-01-24T01:51:52;96249.66;;;10.10;68.37
6851;BME280;3464;42.728;23.296;2023-01-24T01:54:21;96248.38;;;9.94;69.94
6851;BME280;3464;42.728;23.296;2023-01-24T01:56:52;96236.02;;;10.34;69.18
6851;BME280;3464;42.728;23.296;2023-01-24T01:59:19;96245.33;;;9.74;70.72
6851;BME280;3464;42.728;23.296;2023-01-24T02:01:45;96244.48;;;9.90;70.69
6851;BME280;3464;42.728;23.296;2023-01-24T02:04:13;96243.05;;;10.30;69.32
6851;BME280;3464;42.728;23.296;2023-01-24T02:06:57;96248.48;;;10.13;69.16
6851;BME280;3464;42.728;23.296;2023-01-24T02:09:22;96244.86;;;10.04;69.78
6851;BME280;3464;42.728;23.296;2023-01-24T02:11:48;96247.65;;;10.29;69.10
6851;BME280;3464;42.728;23.296;2023-01-24T02:14:15;96240.18;;;10.02;69.28
6851;BME280;3464;42.728;23.296;2023-01-24T02:16:46;96240.69;;;9.73;70.12
6851;BME280;3464;42.728;23.296;2023-01-24T02:19:27;96241.86;;;9.70;70.41
6851;BME280;3464;42.728;23.296;2023-01-24T02:21:50;96236.02;;;10.03;70.20
6851;BME280;3464;42.728;23.296;2023-01-24T02:24:25;96233.61;;;10.39;68.67
6851;BME280;3464;42.728;23.296;2023-01-24T02:26:54;96236.64;;;10.09;68.65
6851;BME280;3464;42.728;23.296;2023-01-24T02:29:20;96239.04;;;10.06;68.89
6851;BME280;3464;42.728;23.296;2023-01-24T02:31:54;96237.58;;;9.98;69.59
6851;BME280;3464;42.728;23.296;2023-01-24T02:34:20;96243.20;;;9.73;70.05
6851;BME280;3464;42.728;23.296;2023-01-24T02:36:47;96237.52;;;9.80;70.10
6851;BME280;3464;42.728;23.296;2023-01-24T02:39:14;96235.86;;;10.28;69.02
6851;BME280;3464;42.728;23.296;2023-01-24T02:41:47;96237.98;;;10.29;68.14
6851;BME280;3464;42.728;23.296;2023-01-24T02:44:14;96243.41;;;10.11;68.46
6851;BME280;3464;42.728;23.296;2023-01-24T02:46:42;96245.80;;;10.07;68.64
6851;BME280;3464;42.728;23.296;2023-01-24T02:49:07;96235.05;;;9.82;69.71
6851;BME280;3464;42.728;23.296;2023-01-24T02:51:33;96245.97;;;9.82;69.18
6851;BME280;3464;42.728;23.296;2023-01-24T02:54:05;96231.77;;;10.01;68.77
6851;BME280;3464;42.728;23.296;2023-01-24T02:56:32;96235.63;;;9.57;69.89
6851;BME280;3464;42.728;23.296;2023-01-24T02:59:04;96239.82;;;9.73;69.47
6851;BME280;3464;42.728;23.296;2023-01-24T03:01:31;96233.08;;;9.87;68.85
6851;BME280;3464;42.728;23.296;2023-01-24T03:03:57;96242.33;;;9.73;69.13
6851;BME280;3464;42.728;23.296;2023-01-24T03:06:24;96237.88;;;9.63;69.52
6851;BME280;3464;42.728;23.296;2023-01-24T03:08:50;96229.97;;;9.80;69.22
6851;BME280;3464;42.728;23.296;2023-01-24T03:11:17;96224.39;;;9.60;69.31
6851;BME280;3464;42.728;23.296;2023-01-24T03:13:44;96230.16;;;9.71;69.16
6851;BME280;3464;42.728;23.296;2023-01-24T03:16:16;96227.89;;;9.81;68.61
6851;BME280;3464;42.728;23.296;2023-01-24T03:18:48;96239.00;;;9.73;69.36
6851;BME280;3464;42.728;23.296;2023-01-24T03:21:20;96236.81;;;9.86;68.52
6851;BME280;3464;42.728;23.296;2023-01-24T03:23:54;96238.05;;;9.55;69.47
6851;BME280;3464;42.728;23.296;2023-01-24T03:26:26;96246.72;;;9.50;69.27
6851;BME280;3464;42.728;23.296;2023-01-24T03:28:58;96227.38;;;9.62;68.78
6851;BME280;3464;42.728;23.296;2023-01-24T03:31:30;96229.25;;;10.01;67.87
6851;BME280;3464;42.728;23.296;2023-01-24T03:34:03;96225.05;;;10.15;67.69
6851;BME280;3464;42.728;23.296;2023-01-24T03:36:36;96231.75;;;9.84;67.86
6851;BME280;3464;42.728;23.296;2023-01-24T03:39:02;96230.51;;;10.32;67.09
6851;BME280;3464;42.728;23.296;2023-01-24T03:41:34;96225.31;;;10.09;67.77
6851;BME280;3464;42.728;23.296;2023-01-24T03:44:01;96220.23;;;10.40;66.24
6851;BME280;3464;42.728;23.296;2023-01-24T03:46:27;96218.39;;;10.33;66.40
6851;BME280;3464;42.728;23.296;2023-01-24T03:48:54;96232.32;;;10.06;67.22
6851;BME280;3464;42.728;23.296;2023-01-24T03:51:22;96224.39;;;9.60;68.23
6851;BME280;3464;42.728;23.296;2023-01-24T03:53:54;96225.33;;;9.20;69.65
6851;BME280;3464;42.728;23.296;2023-01-24T03:56:21;96229.52;;;9.64;68.98
6851;BME280;3464;42.728;23.296;2023-01-24T03:58:47;96217.66;;;9.15;69.52
6851;BME280;3464;42.728;23.296;2023-01-24T04:01:14;96218.28;;;9.66;69.08
6851;BME280;3464;42.728;23.296;2023-01-24T04:03:40;96216.86;;;9.92;68.40
6851;BME280;3464;42.728;23.296;2023-01-24T04:06:07;96215.86;;;9.54;68.66
6851;BME280;3464;42.728;23.296;2023-01-24T04:08:33;96211.34;;;9.73;68.09
6851;BME280;3464;42.728;23.296;2023-01-24T04:11:00;96221.02;;;9.02;69.18
6851;BME280;3464;42.728;23.296;2023-01-24T04:13:27;96215.13;;;9.43;69.32
6851;BME280;3464;42.728;23.296;2023-01-24T04:15:53;96223.05;;;9.28;68.82
6851;BME280;3464;42.728;23.296;2023-01-24T04:18:20;96225.67;;;9.17;69.83
6851;BME280;3464;42.728;23.296;2023-01-24T04:20:47;96220.19;;;9.01;69.95
6851;BME280;3464;42.728;23.296;2023-01-24T04:23:14;96229.66;;;8.97;70.69
6851;BME280;3464;42.728;23.296;2023-01-24T04:25:40;96227.05;;;8.93;70.53
6851;BME280;3464;42.728;23.296;2023-01-24T04:28:07;96224.66;;;9.55;69.18
6851;BME280;3464;42.728;23.296;2023-01-24T04:30:34;96212.56;;;9.57;68.90
6851;BME280;3464;42.728;23.296;2023-01-24T04:33:01;96223.01;;;9.41;69.18
6851;BME280;3464;42.728;23.296;2023-01-24T04:35:28;96213.09;;;9.45;68.67
6851;BME280;3464;42.728;23.296;2023-01-24T04:37:57;96227.30;;;9.30;68.49
6851;BME280;3464;42.728;23.296;2023-01-24T04:40:20;96218.33;;;9.53;68.57
6851;BME280;3464;42.728;23.296;2023-01-24T04:42:47;96213.42;;;9.28;69.37
6851;BME280;3464;42.728;23.296;2023-01-24T04:45:14;96214.51;;;9.66;68.61
6851;BME280;3464;42.728;23.296;2023-01-24T04:47:40;96224.83;;;9.61;67.48
6851;BME280;3464;42.728;23.296;2023-01-24T04:50:08;96224.69;;;9.27;68.89
6851;BME280;3464;42.728;23.296;2023-01-24T04:52:35;96218.37;;;10.02;66.60
6851;BME280;3464;42.728;23.296;2023-01-24T04:55:02;96222.48;;;9.66;67.91
6851;BME280;3464;42.728;23.296;2023-01-24T04:57:29;96223.02;;;9.56;67.85
6851;BME280;3464;42.728;23.296;2023-01-24T04:59:58;96223.34;;;9.83;66.98
6851;BME280;3464;42.728;23.296;2023-01-24T05:02:24;96221.28;;;9.54;67.27
6851;BME280;3464;42.728;23.296;2023-01-24T05:04:53;96229.28;;;9.26;68.16
6851;BME280;3464;42.728;23.296;2023-01-24T05:07:21;96225.43;;;9.67;67.58
6851;BME280;3464;42.728;23.296;2023-01-24T05:09:51;96237.48;;;9.48;67.07
6851;BME280;3464;42.728;23.296;2023-01-24T05:12:21;96239.45;;;9.90;66.39
6851;BME280;3464;42.728;23.296;2023-01-24T05:14:47;96247.23;;;9.39;67.25
6851;BME280;3464;42.728;23.296;2023-01-24T05:17:15;96242.66;;;9.25;67.97
6851;BME280;3464;42.728;23.296;2023-01-24T05:19:41;96243.39;;;9.22;68.63
6851;BME280;3464;42.728;23.296;2023-01-24T05:22:08;96243.59;;;9.72;67.36
6851;BME280;3464;42.728;23.296;2023-01-24T05:24:35;96240.34;;;9.77;67.31
6851;BME280;3464;42.728;23.296;2023-01-24T05:27:01;96246.63;;;9.62;67.28
6851;BME280;3464;42.728;23.296;2023-01-24T05:29:28;96259.81;;;9.25;67.70
6851;BME280;3464;42.728;23.296;2023-01-24T05:31:57;96263.06;;;9.65;67.08
6851;BME280;3464;42.728;23.296;2023-01-24T05:34:23;96270.29;;;9.54;67.69
6851;BME280;3464;42.728;23.296;2023-01-24T05:36:50;96283.69;;;9.68;67.09
6851;BME280;3464;42.728;23.296;2023-01-24T05:39:16;96275.84;;;9.72;67.21
6851;BME280;3464;42.728;23.296;2023-01-24T05:41:43;96284.73;;;9.75;66.97
6851;BME280;3464;42.728;23.296;2023-01-24T05:44:09;96284.13;;;9.68;66.95
6851;BME280;3464;42.728;23.296;2023-01-24T05:46:36;96280.14;;;9.32;68.11
6851;BME280;3464;42.728;23.296;2023-01-24T05:49:02;96284.66;;;9.44;67.71
6851;BME280;3464;42.728;23.296;2023-01-24T05:51:29;96289.41;;;8.80;69.09
6851;BME280;3464;42.728;23.296;2023-01-24T05:53:56;96286.54;;;9.23;68.31
6851;BME280;3464;42.728;23.296;2023-01-24T05:56:23;96287.22;;;9.17;68.55
6851;BME280;3464;42.728;23.296;2023-01-24T05:58:49;96290.75;;;9.66;66.70
6851;BME280;3464;42.728;23.296;2023-01-24T06:01:17;96290.84;;;9.69;63.67
6851;BME280;3464;42.728;23.296;2023-01-24T06:03:44;96309.14;;;9.22;62.27
6851;BME280;3464;42.728;23.296;2023-01-24T06:06:10;96302.95;;;8.72;63.84
6851;BME280;3464;42.728;23.296;2023-01-24T06:08:36;96308.08;;;9.29;62.49
6851;BME280;3464;42.728;23.296;2023-01-24T06:11:06;96310.13;;;8.60;63.44
6851;BME280;3464;42.728;23.296;2023-01-24T06:13:32;96315.43;;;9.09;61.96
6851;BME280;3464;42.728;23.296;2023-01-24T06:16:03;96320.66;;;8.63;62.46
6851;BME280;3464;42.728;23.296;2023-01-24T06:18:29;96320.19;;;8.74;61.99
6851;BME280;3464;42.728;23.296;2023-01-24T06:20:56;96326.64;;;8.67;62.59
6851;BME280;3464;42.728;23.296;2023-01-24T06:23:24;96320.69;;;8.52;62.82
6851;BME280;3464;42.728;23.296;2023-01-24T06:25:50;96324.57;;;8.68;62.41
6851;BME280;3464;42.728;23.296;2023-01-24T06:28:17;96320.69;;;9.03;61.99
6851;BME280;3464;42.728;23.296;2023-01-24T06:30:46;96332.73;;;8.74;62.01
6851;BME280;3464;42.728;23.296;2023-01-24T06:33:35;96330.27;;;8.26;63.18
6851;BME280;3464;42.728;23.296;2023-01-24T06:36:10;96337.66;;;8.46;62.57
6851;BME280;3464;42.728;23.296;2023-01-24T06:38:33;96340.75;;;8.04;63.64
6851;BME280;3464;42.728;23.296;2023-01-24T06:41:00;96350.36;;;8.16;63.17
6851;BME280;3464;42.728;23.296;2023-01-24T06:43:27;96342.63;;;8.32;63.69
6851;BME280;3464;42.728;23.296;2023-01-24T06:45:54;96352.20;;;7.97;64.78
6851;BME280;3464;42.728;23.296;2023-01-24T06:48:20;96359.27;;;7.85;65.68
6851;BME280;3464;42.728;23.296;2023-01-24T06:50:47;96362.64;;;7.74;65.89
6851;BME280;3464;42.728;23.296;2023-01-24T06:53:14;96367.50;;;7.82;65.78
6851;BME280;3464;42.728;23.296;2023-01-24T06:55:44;96360.43;;;8.16;65.29
6851;BME280;3464;42.728;23.296;2023-01-24T06:58:11;96353.00;;;8.67;65.12
6851;BME280;3464;42.728;23.296;2023-01-24T07:00:37;96363.02;;;7.51;66.50
6851;BME280;3464;42.728;23.296;2023-01-24T07:03:05;96365.34;;;7.46;67.32
6851;BME280;3464;42.728;23.296;2023-01-24T07:05:33;96371.50;;;7.43;67.73
6851;BME280;3464;42.728;23.296;2023-01-24T07:07:59;96379.59;;;7.26;68.31
6851;BME280;3464;42.728;23.296;2023-01-24T07:10:25;96370.97;;;7.51;67.58
6851;BME280;3464;42.728;23.296;2023-01-24T07:12:52;96370.95;;;7.95;68.62
6851;BME280;3464;42.728;23.296;2023-01-24T07:15:19;96380.22;;;7.10;68.31
6851;BME280;3464;42.728;23.296;2023-01-24T07:17:45;96369.94;;;7.56;68.36
6851;BME280;3464;42.728;23.296;2023-01-24T07:20:13;96379.61;;;7.47;67.43
6851;BME280;3464;42.728;23.296;2023-01-24T07:22:41;96377.77;;;7.32;67.85
6851;BME280;3464;42.728;23.296;2023-01-24T07:25:14;96378.72;;;7.79;68.37
6851;BME280;3464;42.728;23.296;2023-01-24T07:27:42;96375.83;;;7.58;68.52
6851;BME280;3464;42.728;23.296;2023-01-24T07:30:09;96380.55;;;7.51;67.51
6851;BME280;3464;42.728;23.296;2023-01-24T07:32:36;96389.13;;;7.14;68.18
6851;BME280;3464;42.728;23.296;2023-01-24T07:35:03;96383.75;;;7.47;68.34
6851;BME280;3464;42.728;23.296;2023-01-24T07:37:29;96382.76;;;7.43;67.58
6851;BME280;3464;42.728;23.296;2023-01-24T07:39:56;96388.33;;;7.68;67.87
6851;BME280;3464;42.728;23.296;2023-01-24T07:42:24;96399.18;;;7.68;67.78
6851;BME280;3464;42.728;23.296;2023-01-24T07:44:50;96391.33;;;7.93;67.36
6851;BME280;3464;42.728;23.296;2023-01-24T07:47:17;96397.08;;;7.79;68.12
6851;BME280;3464;42.728;23.296;2023-01-24T07:49:44;96392.70;;;7.74;68.09
6851;BME280;3464;42.728;23.296;2023-01-24T07:52:10;96397.72;;;7.52;67.93
6851;BME280;3464;42.728;23.296;2023-01-24T07:54:37;96393.84;;;8.27;66.37
6851;BME280;3464;42.728;23.296;2023-01-24T07:57:03;96396.63;;;8.23;66.52
6851;BME280;3464;42.728;23.296;2023-01-24T07:59:30;96401.42;;;8.52;67.22
6851;BME280;3464;42.728;23.296;2023-01-24T08:01:58;96403.95;;;8.18;66.97
6851;BME280;3464;42.728;23.296;2023-01-24T08:04:25;96399.72;;;8.27;68.18
6851;BME280;3464;42.728;23.296;2023-01-24T08:06:51;96411.94;;;7.97;68.66
6851;BME280;3464;42.728;23.296;2023-01-24T08:09:26;96416.62;;;7.99;69.74
6851;BME280;3464;42.728;23.296;2023-01-24T08:11:52;96416.27;;;8.46;68.12
6851;BME280;3464;42.728;23.296;2023-01-24T08:14:19;96411.13;;;8.67;67.67
6851;BME280;3464;42.728;23.296;2023-01-24T08:16:46;96411.41;;;8.05;68.51
6851;BME280;3464;42.728;23.296;2023-01-24T08:19:13;96414.78;;;8.28;67.75
6851;BME280;3464;42.728;23.296;2023-01-24T08:21:40;96408.64;;;8.79;67.79
6851;BME280;3464;42.728;23.296;2023-01-24T08:24:07;96408.86;;;9.24;66.48
6851;BME280;3464;42.728;23.296;2023-01-24T08:26:33;96409.16;;;8.95;66.03
6851;BME280;3464;42.728;23.296;2023-01-24T08:29:00;96412.00;;;8.92;64.84
6851;BME280;3464;42.728;23.296;2023-01-24T08:31:26;96417.30;;;8.88;66.35
6851;BME280;3464;42.728;23.296;2023-01-24T08:33:54;96417.66;;;8.99;65.33
6851;BME280;3464;42.728;23.296;2023-01-24T08:36:21;96423.50;;;9.24;64.81
6851;BME280;3464;42.728;23.296;2023-01-24T08:38:47;96424.91;;;9.54;64.57
6851;BME280;3464;42.728;23.296;2023-01-24T08:41:14;96424.05;;;9.02;63.32
6851;BME280;3464;42.728;23.296;2023-01-24T08:43:40;96423.22;;;9.41;64.60
6851;BME280;3464;42.728;23.296;2023-01-24T08:46:07;96426.35;;;9.21;62.96
6851;BME280;3464;42.728;23.296;2023-01-24T08:48:33;96428.19;;;9.25;62.63
6851;BME280;3464;42.728;23.296;2023-01-24T08:51:03;96419.06;;;9.55;63.61
6851;BME280;3464;42.728;23.296;2023-01-24T08:53:29;96430.27;;;8.76;66.38
6851;BME280;3464;42.728;23.296;2023-01-24T08:55:56;96424.48;;;8.78;65.16
6851;BME280;3464;42.728;23.296;2023-01-24T09:01:44;96426.10;;;8.89;65.45
6851;BME280;3464;42.728;23.296;2023-01-24T09:04:11;96423.45;;;8.47;65.60
6851;BME280;3464;42.728;23.296;2023-01-24T09:06:39;96434.58;;;8.21;67.36
6851;BME280;3464;42.728;23.296;2023-01-24T09:09:05;96419.90;;;8.68;66.33
6851;BME280;3464;42.728;23.296;2023-01-24T09:11:33;96412.10;;;8.71;65.47
6851;BME280;3464;42.728;23.296;2023-01-24T09:13:59;96422.94;;;9.06;66.07
6851;BME280;3464;42.728;23.296;2023-01-24T09:16:27;96422.25;;;8.50;66.06
6851;BME280;3464;42.728;23.296;2023-01-24T09:18:54;96423.33;;;8.68;65.74
6851;BME280;3464;42.728;23.296;2023-01-24T09:21:21;96424.06;;;8.19;65.93
6851;BME280;3464;42.728;23.296;2023-01-24T09:23:47;96429.02;;;8.07;66.13
6851;BME280;3464;42.728;23.296;2023-01-24T09:26:15;96413.22;;;8.20;65.70
6851;BME280;3464;42.728;23.296;2023-01-24T09:28:41;96415.80;;;8.68;65.13
6851;BME280;3464;42.728;23.296;2023-01-24T09:31:09;96412.70;;;8.63;64.92
6851;BME280;3464;42.728;23.296;2023-01-24T09:33:40;96412.87;;;8.44;65.24
6851;BME280;3464;42.728;23.296;2023-01-24T09:36:08;96429.56;;;9.04;64.10
6851;BME280;3464;42.728;23.296;2023-01-24T09:38:35;96410.94;;;8.73;63.95
6851;BME280;3464;42.728;23.296;2023-01-24T09:41:17;96407.20;;;9.12;63.56
6851;BME280;3464;42.728;23.296;2023-01-24T09:44:03;96405.34;;;9.46;63.47
6851;BME280;3464;42.728;23.296;2023-01-24T09:46:51;96403.74;;;9.21;63.70
6851;BME280;3464;42.728;23.296;2023-01-24T09:49:39;96410.86;;;8.96;63.84
6851;BME280;3464;42.728;23.296;2023-01-24T09:52:04;96412.20;;;9.24;64.03
6851;BME280;3464;42.728;23.296;2023-01-24T09:54:38;96408.02;;;8.99;65.06
6851;BME280;3464;42.728;23.296;2023-01-24T09:57:11;96396.95;;;10.14;63.67
6851;BME280;3464;42.728;23.296;2023-01-24T09:59:39;96399.11;;;9.21;65.08
6851;BME280;3464;42.728;23.296;2023-01-24T10:04:38;96391.77;;;10.54;64.52
6851;BME280;3464;42.728;23.296;2023-01-24T10:07:22;96391.27;;;11.17;62.34
6851;BME280;3464;42.728;23.296;2023-01-24T10:09:51;96391.44;;;10.26;63.29
6851;BME280;3464;42.728;23.296;2023-01-24T10:12:34;96384.50;;;10.33;63.16
6851;BME280;3464;42.728;23.296;2023-01-24T10:20:34;96379.31;;;9.70;64.50
6851;BME280;3464;42.728;23.296;2023-01-24T10:23:03;96379.48;;;9.91;64.21
6851;BME280;3464;42.728;23.296;2023-01-24T10:25:33;96388.61;;;9.60;63.97
6851;BME280;3464;42.728;23.296;2023-01-24T10:27:58;96379.78;;;9.18;65.94
6851;BME280;3464;42.728;23.296;2023-01-24T10:30:49;96380.64;;;9.32;64.83
6851;BME280;3464;42.728;23.296;2023-01-24T10:33:14;96372.43;;;9.11;65.44
6851;BME280;3464;42.728;23.296;2023-01-24T10:35:43;96368.03;;;9.44;65.00
6851;BME280;3464;42.728;23.296;2023-01-24T10:38:07;96371.56;;;10.84;63.30
6851;BME280;3464;42.728;23.296;2023-01-24T10:40:33;96373.70;;;9.38;63.96
6851;BME280;3464;42.728;23.296;2023-01-24T10:43:04;96371.80;;;9.44;64.22
6851;BME280;3464;42.728;23.296;2023-01-24T10:45:49;96360.63;;;9.62;65.00
6851;BME280;3464;42.728;23.296;2023-01-24T10:48:24;96364.50;;;9.81;62.64
6851;BME280;3464;42.728;23.296;2023-01-24T10:50:48;96365.11;;;9.87;62.73
6851;BME280;3464;42.728;23.296;2023-01-24T10:53:24;96370.40;;;9.82;62.24
6851;BME280;3464;42.728;23.296;2023-01-24T10:55:56;96361.40;;;9.61;63.89
6851;BME280;3464;42.728;23.296;2023-01-24T10:58:21;96359.02;;;9.64;63.24
6851;BME280;3464;42.728;23.296;2023-01-24T11:00:47;96367.45;;;10.23;62.19
6851;BME280;3464;42.728;23.296;2023-01-24T11:03:22;96365.19;;;10.64;61.09
6851;BME280;3464;42.728;23.296;2023-01-24T11:05:49;96353.31;;;10.14;61.77
6851;BME280;3464;42.728;23.296;2023-01-24T11:08:19;96350.49;;;9.74;62.25
6851;BME280;3464;42.728;23.296;2023-01-24T11:10:44;96361.19;;;9.68;63.13
6851;BME280;3464;42.728;23.296;2023-01-24T11:13:24;96357.86;;;9.68;63.77
6851;BME280;3464;42.728;23.296;2023-01-24T11:15:47;96352.79;;;9.81;63.03
6851;BME280;3464;42.728;23.296;2023-01-24T11:18:24;96358.91;;;9.34;63.62
6851;BME280;3464;42.728;23.296;2023-01-24T11:21:09;96344.48;;;9.84;62.89
6851;BME280;3464;42.728;23.296;2023-01-24T11:23:34;96347.24;;;10.53;61.42
6851;BME280;3464;42.728;23.296;2023-01-24T11:26:01;96339.92;;;9.86;62.66
6851;BME280;3464;42.728;23.296;2023-01-24T11:28:29;96336.56;;;10.30;62.23
6851;BME280;3464;42.728;23.296;2023-01-24T11:30:56;96337.34;;;10.26;61.76
6851;BME280;3464;42.728;23.296;2023-01-24T11:33:27;96350.69;;;10.39;60.89
6851;BME280;3464;42.728;23.296;2023-01-24T11:35:54;96334.63;;;9.47;62.84
6851;BME280;3464;42.728;23.296;2023-01-24T11:38:27;96336.05;;;9.40;62.41
6851;BME280;3464;42.728;23.296;2023-01-24T11:41:14;96334.16;;;10.04;61.99
6851;BME280;3464;42.728;23.296;2023-01-24T11:43:45;96336.96;;;9.71;62.33
6851;BME280;3464;42.728;23.296;2023-01-24T11:46:33;96337.66;;;9.65;61.47
6851;BME280;3464;42.728;23.296;2023-01-24T11:49:34;96341.37;;;9.36;62.35
6851;BME280;3464;42.728;23.296;2023-01-24T11:52:00;96330.88;;;9.35;62.85
6851;BME280;3464;42.728;23.296;2023-01-24T11:59:48;96329.61;;;9.49;63.55
6851;BME280;3464;42.728;23.296;2023-01-24T12:05:23;96330.04;;;10.85;61.14
6851;BME280;3464;42.728;23.296;2023-01-24T12:08:06;96331.58;;;11.15;60.07
6851;BME280;3464;42.728;23.296;2023-01-24T12:10:32;96332.63;;;10.24;60.54
6851;BME280;3464;42.728;23.296;2023-01-24T12:13:02;96338.86;;;10.21;60.63
6851;BME280;3464;42.728;23.296;2023-01-24T12:15:30;96339.11;;;9.57;61.24
6851;BME280;3464;42.728;23.296;2023-01-24T12:18:21;96339.31;;;9.50;62.49
6851;BME280;3464;42.728;23.296;2023-01-24T12:23:35;96333.16;;;9.54;62.51
6851;BME280;3464;42.728;23.296;2023-01-24T12:26:08;96339.34;;;10.08;62.85
6851;BME280;3464;42.728;23.296;2023-01-24T12:28:34;96334.02;;;9.84;62.53
6851;BME280;3464;42.728;23.296;2023-01-24T12:31:01;96339.05;;;9.85;63.72
6851;BME280;3464;42.728;23.296;2023-01-24T12:34:14;96342.95;;;9.46;64.48
6851;BME280;3464;42.728;23.296;2023-01-24T12:36:25;96331.25;;;10.04;63.23
6851;BME280;3464;42.728;23.296;2023-01-24T12:38:49;96337.50;;;9.19;64.24
6851;BME280;3464;42.728;23.296;2023-01-24T12:41:24;96334.08;;;9.57;63.38
6851;BME280;3464;42.728;23.296;2023-01-24T12:44:00;96330.95;;;9.94;61.85
6851;BME280;3464;42.728;23.296;2023-01-24T12:46:30;96342.28;;;9.24;62.88
6851;BME280;3464;42.728;23.296;2023-01-24T12:48:58;96339.84;;;8.87;64.10
6851;BME280;3464;42.728;23.296;2023-01-24T12:51:34;96330.89;;;8.69;65.09
6851;BME280;3464;42.728;23.296;2023-01-24T12:54:07;96330.77;;;8.79;64.80
6851;BME280;3464;42.728;23.296;2023-01-24T12:59:17;96330.92;;;9.35;63.81
6851;BME280;3464;42.728;23.296;2023-01-24T13:01:56;96325.14;;;9.53;63.28
6851;BME280;3464;42.728;23.296;2023-01-24T13:04:20;96332.55;;;9.77;62.78
6851;BME280;3464;42.728;23.296;2023-01-24T13:06:55;96341.89;;;9.39;62.42
6851;BME280;3464;42.728;23.296;2023-01-24T13:09:59;96339.44;;;9.14;63.11
6851;BME280;3464;42.728;23.296;2023-01-24T13:12:08;96338.35;;;8.80;63.00
6851;BME280;3464;42.728;23.296;2023-01-24T13:14:35;96343.15;;;8.61;63.26
6851;BME280;3464;42.728;23.296;2023-01-24T13:17:15;96339.54;;;8.65;63.48
6851;BME280;3464;42.728;23.296;2023-01-24T13:19:46;96340.42;;;8.78;63.47
6851;BME280;3464;42.728;23.296;2023-01-24T13:22:25;96337.25;;;8.85;64.02
6851;BME280;3464;42.728;23.296;2023-01-24T13:24:55;96335.77;;;9.03;63.33
6851;BME280;3464;42.728;23.296;2023-01-24T13:27:25;96339.67;;;9.34;64.03
6851;BME280;3464;42.728;23.296;2023-01-24T13:30:03;96346.85;;;8.84;64.36
6851;BME280;3464;42.728;23.296;2023-01-24T13:32:26;96341.28;;;9.20;63.49
6851;BME280;3464;42.728;23.296;2023-01-24T13:34:54;96342.47;;;9.03;63.49
6851;BME280;3464;42.728;23.296;2023-01-24T13:37:23;96340.86;;;9.46;63.34
6851;BME280;3464;42.728;23.296;2023-01-24T13:39:49;96351.56;;;9.14;62.88
6851;BME280;3464;42.728;23.296;2023-01-24T13:42:20;96335.41;;;9.74;62.34
6851;BME280;3464;42.728;23.296;2023-01-24T13:44:45;96351.36;;;8.94;63.16
6851;BME280;3464;42.728;23.296;2023-01-24T13:47:23;96348.22;;;9.40;62.80
6851;BME280;3464;42.728;23.296;2023-01-24T13:50:10;96347.22;;;9.08;63.86
6851;BME280;3464;42.728;23.296;2023-01-24T13:52:36;96364.53;;;8.61;64.20
6851;BME280;3464;42.728;23.296;2023-01-24T13:55:04;96350.89;;;9.18;63.02
6851;BME280;3464;42.728;23.296;2023-01-24T13:57:32;96346.45;;;9.64;61.92